createdAt,value
2022-12-23T00:00:42.598Z,98535.38
2022-12-23T00:03:09.538Z,98529.44
2022-12-23T00:05:40.716Z,98532.88
2022-12-23T00:08:08.456Z,98536.28
2022-12-23T00:10:39.574Z,98537.09
2022-12-23T00:13:25.883Z,98539.59
2022-12-23T00:16:06.412Z,98534.63
2022-12-23T00:18:34.072Z,98537.09
2022-12-23T00:21:09.370Z,98535.41
2022-12-23T00:23:39.963Z,98549.72
2022-12-23T00:26:12.630Z,98547.97
2022-12-23T00:28:39.368Z,98559.81
2022-12-23T00:31:08.070Z,98557.22
2022-12-23T00:33:44.460Z,98561.38
2022-12-23T00:36:27.825Z,98563.09
2022-12-23T00:39:14.951Z,98563.09
2022-12-23T00:42:00.869Z,98556.34
2022-12-23T00:44:27.760Z,98566.63
2022-12-23T00:46:54.668Z,98563.13
2022-12-23T00:49:40.396Z,98561.38
2022-12-23T00:52:11.653Z,98568.03
2022-12-23T00:54:38.714Z,98562.97
2022-12-23T00:57:05.915Z,98568.84
2022-12-23T00:59:33.809Z,98568.78
2022-12-23T01:02:19.426Z,98572.09
2022-12-23T01:05:04.817Z,98585.66
2022-12-23T01:07:31.617Z,98578.03
2022-12-23T01:09:58.420Z,98593.19
2022-12-23T01:12:25.183Z,98584.66
2022-12-23T01:14:51.969Z,98583.72
2022-12-23T01:17:18.975Z,98584.59
2022-12-23T01:19:45.841Z,98592.22
2022-12-23T01:22:12.563Z,98593.84
2022-12-23T01:24:39.445Z,98595.56
2022-12-23T01:27:06.143Z,98600.66
2022-12-23T01:29:32.860Z,98609.97
2022-12-23T01:31:59.843Z,98604.91
2022-12-23T01:34:32.543Z,98613.31
2022-12-23T01:37:03.106Z,98613.38
2022-12-23T01:39:29.844Z,98610.81
2022-12-23T01:42:15.133Z,98610.81
2022-12-23T01:45:00.503Z,98612.59
2022-12-23T01:47:29.611Z,98616.06
2022-12-23T01:50:26.134Z,98615.25
2022-12-23T01:53:26.997Z,98616.16
2022-12-23T01:56:23.917Z,98625.47
2022-12-23T01:59:01.731Z,98617.91
2022-12-23T02:01:48.651Z,98617.09
2022-12-23T02:04:23.270Z,98616.28
2022-12-23T02:07:10.479Z,98633.16
2022-12-23T02:09:40.347Z,98619.66
2022-12-23T02:12:34.368Z,98629.78
2022-12-23T02:15:37.737Z,98642.59
2022-12-23T02:18:38.274Z,98636.78
2022-12-23T02:21:22.228Z,98638.50
2022-12-23T02:24:19.995Z,98641.91
2022-12-23T02:27:09.608Z,98638.59
2022-12-23T02:30:11.447Z,98652.97
2022-12-23T02:33:13.270Z,98655.56
2022-12-23T02:36:00.941Z,98656.44
2022-12-23T02:38:56.326Z,98664.06
2022-12-23T02:41:40.451Z,98672.53
2022-12-23T02:44:34.267Z,98664.06
2022-12-23T02:47:12.545Z,98671.66
2022-12-23T02:49:45.353Z,98669.13
2022-12-23T02:52:20.699Z,98685.22
2022-12-23T02:54:54.150Z,98686.91
2022-12-23T02:57:29.233Z,98694.53
2022-12-23T02:59:58.870Z,98708.91
2022-12-23T03:02:25.722Z,98704.72
2022-12-23T03:04:52.620Z,98697.97
2022-12-23T03:07:38.117Z,98706.47
2022-12-23T03:10:28.121Z,98720.03
2022-12-23T03:13:27.804Z,98713.38
2022-12-23T03:16:26.130Z,98720.19
2022-12-23T03:19:19.912Z,98721.09
2022-12-23T03:22:40.968Z,98733.81
2022-12-23T03:25:26.211Z,98728.81
2022-12-23T03:28:17.999Z,98728.00
2022-12-23T03:30:52.673Z,98738.16
2022-12-23T03:33:30.914Z,98722.94
2022-12-23T03:36:12.888Z,98730.53
2022-12-23T03:38:43.737Z,98722.94
2022-12-23T03:41:19.974Z,98732.31
2022-12-23T03:43:58.270Z,98730.63
2022-12-23T03:46:59.690Z,98728.09
2022-12-23T03:49:35.638Z,98723.97
2022-12-23T03:52:21.302Z,98717.16
2022-12-23T03:54:59.508Z,98711.31
2022-12-23T03:57:37.070Z,98706.22
2022-12-23T04:00:04.917Z,98696.94
2022-12-23T04:02:45.643Z,98691.00
2022-12-23T04:05:37.469Z,98701.19
2022-12-23T04:08:18.697Z,98705.47
2022-12-23T04:10:46.607Z,98697.03
2022-12-23T04:13:13.506Z,98699.56
2022-12-23T04:15:42.166Z,98693.59
2022-12-23T04:18:10.887Z,98696.13
2022-12-23T04:20:38.088Z,98688.53
2022-12-23T04:23:05.211Z,98704.63
2022-12-23T04:25:32.024Z,98700.47
2022-12-23T04:27:58.755Z,98710.63
2022-12-23T04:30:29.780Z,98720.84
2022-12-23T04:33:00.659Z,98711.53
2022-12-23T04:35:27.380Z,98717.53
2022-12-23T04:37:54.111Z,98725.09
2022-12-23T04:40:20.852Z,98721.69
2022-12-23T04:42:47.636Z,98725.97
2022-12-23T04:45:15.002Z,98728.47
2022-12-23T04:47:41.739Z,98727.59
2022-12-23T04:50:14.683Z,98728.47
2022-12-23T04:52:43.068Z,98725.00
2022-12-23T04:55:10.664Z,98719.03
2022-12-23T04:57:37.477Z,98718.97
2022-12-23T05:00:06.243Z,98720.63
2022-12-23T05:02:33.153Z,98715.53
2022-12-23T05:04:59.949Z,98718.03
2022-12-23T05:07:26.694Z,98718.03
2022-12-23T05:09:53.431Z,98717.13
2022-12-23T05:12:20.167Z,98723.97
2022-12-23T05:14:47.176Z,98732.34
2022-12-23T05:17:13.939Z,98732.31
2022-12-23T05:19:40.649Z,98732.31
2022-12-23T05:22:07.365Z,98739.03
2022-12-23T05:24:34.070Z,98738.16
2022-12-23T05:27:00.918Z,98737.22
2022-12-23T05:29:28.185Z,98730.50
2022-12-23T05:31:55.008Z,98736.34
2022-12-23T05:34:22.241Z,98736.31
2022-12-23T05:36:49.022Z,98746.47
2022-12-23T05:39:15.758Z,98749.88
2022-12-23T05:41:42.505Z,98753.22
2022-12-23T05:44:09.452Z,98757.44
2022-12-23T05:46:36.234Z,98764.19
2022-12-23T05:49:03.225Z,98760.81
2022-12-23T05:51:29.985Z,98763.38
2022-12-23T05:53:56.737Z,98768.44
2022-12-23T05:56:23.494Z,98772.66
2022-12-23T05:58:50.196Z,98769.28
2022-12-23T06:01:16.902Z,98768.41
2022-12-23T06:03:43.727Z,98765.88
2022-12-23T06:06:10.698Z,98770.09
2022-12-23T06:08:37.401Z,98765.00
2022-12-23T06:11:05.685Z,98759.09
2022-12-23T06:13:32.523Z,98767.59
2022-12-23T06:15:59.263Z,98763.38
2022-12-23T06:18:25.998Z,98753.22
2022-12-23T06:20:52.761Z,98761.69
2022-12-23T06:23:19.459Z,98749.88
2022-12-23T06:25:46.169Z,98754.94
2022-12-23T06:28:12.912Z,98749.00
2022-12-23T06:30:39.634Z,98752.41
2022-12-23T06:33:06.395Z,98744.78
2022-12-23T06:35:33.108Z,98740.56
2022-12-23T06:37:59.899Z,98738.84
2022-12-23T06:40:28.935Z,98736.31
2022-12-23T06:42:55.672Z,98740.50
2022-12-23T06:45:22.443Z,98740.50
2022-12-23T06:47:49.217Z,98730.34
2022-12-23T06:50:16.045Z,98730.34
2022-12-23T06:52:42.795Z,98725.28
2022-12-23T06:55:09.681Z,98724.44
2022-12-23T06:57:36.515Z,98739.69
2022-12-23T07:00:05.288Z,98757.47
2022-12-23T07:02:32.169Z,98760.00
2022-12-23T07:04:58.951Z,98772.72
2022-12-23T07:07:25.728Z,98779.47
2022-12-23T07:09:52.660Z,98782.03
2022-12-23T07:12:19.436Z,98776.94
2022-12-23T07:14:46.170Z,98777.84
2022-12-23T07:17:12.899Z,98793.88
2022-12-23T07:19:41.560Z,98796.47
2022-12-23T07:22:10.237Z,98804.88
2022-12-23T07:24:37.618Z,98805.75
2022-12-23T07:27:04.978Z,98796.41
2022-12-23T07:29:31.738Z,98803.22
2022-12-23T07:31:58.687Z,98798.94
2022-12-23T07:34:25.558Z,98802.34
2022-12-23T07:36:52.293Z,98783.72
2022-12-23T07:39:19.004Z,98782.88
2022-12-23T07:41:45.746Z,98777.81
2022-12-23T07:44:12.776Z,98780.34
2022-12-23T07:46:40.111Z,98784.56
2022-12-23T07:49:06.927Z,98787.09
2022-12-23T07:51:33.781Z,98789.63
2022-12-23T07:54:00.509Z,98791.31
2022-12-23T07:56:27.285Z,98798.09
2022-12-23T07:58:54.424Z,98781.16
2022-12-23T08:01:22.234Z,98794.69
2022-12-23T08:03:49.104Z,98785.41
2022-12-23T08:06:17.004Z,98784.50
2022-12-23T08:08:46.044Z,98781.09
2022-12-23T08:11:15.254Z,98774.34
2022-12-23T08:13:44.483Z,98775.16
2022-12-23T08:16:12.565Z,98767.56
2022-12-23T08:18:41.866Z,98778.44
2022-12-23T08:21:17.372Z,98772.53
2022-12-23T08:23:44.208Z,98775.03
2022-12-23T08:26:14.837Z,98770.72
2022-12-23T08:28:44.627Z,98780.84
2022-12-23T08:31:22.543Z,98788.47
2022-12-23T08:33:54.603Z,98778.25
2022-12-23T08:36:34.400Z,98775.66
2022-12-23T08:39:07.513Z,98769.75
2022-12-23T08:41:40.357Z,98777.31
2022-12-23T08:44:08.481Z,98773.03
2022-12-23T08:46:36.530Z,98770.47
2022-12-23T08:49:05.721Z,98772.16
2022-12-23T08:51:32.716Z,98777.25
2022-12-23T08:54:01.663Z,98778.88
2022-12-23T08:56:36.194Z,98770.34
2022-12-23T08:59:04.109Z,98761.81
2022-12-23T09:01:34.774Z,98761.81
2022-12-23T09:04:05.086Z,98760.94
2022-12-23T09:06:41.152Z,98760.13
2022-12-23T09:09:11.262Z,98753.41
2022-12-23T09:11:39.064Z,98748.34
2022-12-23T09:14:07.235Z,98753.47
2022-12-23T09:16:34.552Z,98751.84
2022-12-23T09:19:01.854Z,98734.03
2022-12-23T09:21:28.709Z,98742.53
2022-12-23T09:23:55.484Z,98729.81
2022-12-23T09:26:25.947Z,98723.09
2022-12-23T09:28:53.584Z,98712.06
2022-12-23T09:31:22.362Z,98714.66
2022-12-23T09:33:52.176Z,98701.97
2022-12-23T09:36:19.265Z,98712.19
2022-12-23T09:38:46.033Z,98708.78
2022-12-23T09:41:33.485Z,98713.91
2022-12-23T09:44:02.855Z,98704.66
2022-12-23T09:46:33.976Z,98697.03
2022-12-23T09:49:13.215Z,98685.13
2022-12-23T09:51:40.221Z,98674.16
2022-12-23T09:54:23.385Z,98680.91
2022-12-23T09:57:18.461Z,98683.44
2022-12-23T10:00:03.078Z,98672.38
2022-12-23T10:03:23.682Z,98663.84
2022-12-23T10:06:30.469Z,98674.00
2022-12-23T10:09:07.511Z,98673.09
2022-12-23T10:11:49.593Z,98660.34
2022-12-23T10:14:29.270Z,98662.75
2022-12-23T10:17:04.922Z,98655.06
2022-12-23T10:19:42.018Z,98650.75
2022-12-23T10:22:34.275Z,98647.19
2022-12-23T10:25:05.593Z,98642.09
2022-12-23T10:27:39.829Z,98643.72
2022-12-23T10:33:20.303Z,98631.00
2022-12-23T10:36:14.095Z,98629.22
2022-12-23T10:39:05.874Z,98622.44
2022-12-23T10:42:20.528Z,98612.31
2022-12-23T10:44:58.968Z,98614.13
2022-12-23T10:47:42.686Z,98608.28
2022-12-23T10:50:29.038Z,98604.94
2022-12-23T10:53:01.895Z,98588.06
2022-12-23T10:55:35.417Z,98587.34
2022-12-23T10:58:18.072Z,98586.59
2022-12-23T11:01:15.016Z,98575.72
2022-12-23T11:03:52.851Z,98571.66
2022-12-23T11:06:19.847Z,98564.94
2022-12-23T11:08:47.134Z,98573.38
2022-12-23T11:11:14.821Z,98572.63
2022-12-23T11:13:45.823Z,98557.44
2022-12-23T11:16:25.506Z,98561.75
2022-12-23T11:19:03.294Z,98559.25
2022-12-23T11:21:33.394Z,98545.78
2022-12-23T11:24:18.058Z,98542.50
2022-12-23T11:26:58.789Z,98539.16
2022-12-23T11:29:35.251Z,98516.41
2022-12-23T11:32:35.011Z,98513.94
2022-12-23T11:35:01.904Z,98498.88
2022-12-23T11:37:41.097Z,98489.59
2022-12-23T11:40:26.340Z,98471.94
2022-12-23T11:42:59.651Z,98469.78
2022-12-23T11:45:31.912Z,98454.66
2022-12-23T11:47:58.667Z,98443.97
2022-12-23T11:50:30.126Z,98434.06
2022-12-23T11:53:20.184Z,98429.28
2022-12-23T11:55:57.758Z,98420.22
2022-12-23T11:58:27.407Z,98409.41
2022-12-23T12:00:59.484Z,98405.31
2022-12-23T12:03:35.845Z,98399.56
2022-12-23T12:06:05.624Z,98389.59
2022-12-23T12:08:37.494Z,98405.88
2022-12-23T12:11:51.744Z,98392.56
2022-12-23T12:14:46.689Z,98398.72
2022-12-23T12:17:19.422Z,98388.69
2022-12-23T12:20:04.669Z,98381.13
2022-12-23T12:22:44.322Z,98357.47
2022-12-23T12:25:40.006Z,98347.44
2022-12-23T12:28:14.687Z,98329.78
2022-12-23T12:30:57.797Z,98313.75
2022-12-23T12:33:54.984Z,98296.91
2022-12-23T12:37:07.904Z,98299.63
2022-12-23T12:39:52.931Z,98336.97
2022-12-23T12:42:44.144Z,98303.97
2022-12-23T12:45:37.843Z,98356.31
2022-12-23T12:48:36.242Z,98317.41
2022-12-23T12:51:16.006Z,98280.25
2022-12-23T12:54:06.652Z,98260.84
2022-12-23T12:56:52.750Z,98318.25
2022-12-23T12:59:38.551Z,98306.28
2022-12-23T13:02:20.661Z,98307.03
2022-12-23T13:05:03.088Z,98271.44
2022-12-23T13:08:03.699Z,98271.16
2022-12-23T13:10:49.618Z,98252.31
2022-12-23T13:14:03.840Z,98258.75
2022-12-23T13:16:52.087Z,98235.59
2022-12-23T13:19:38.371Z,98247.16
2022-12-23T13:22:13.163Z,98246.09
2022-12-23T13:25:42.465Z,98223.78
2022-12-23T13:29:09.184Z,98219.31
2022-12-23T13:32:19.405Z,98217.56
2022-12-23T13:35:01.277Z,98220.78
2022-12-23T13:37:49.622Z,98209.50
2022-12-23T13:41:01.444Z,98202.56
2022-12-23T13:43:48.913Z,98197.28
2022-12-23T13:46:51.946Z,98199.59
2022-12-23T13:49:34.243Z,98193.44
2022-12-23T13:52:12.974Z,98184.69
2022-12-23T13:55:26.970Z,98183.50
2022-12-23T13:58:01.705Z,98189.44
2022-12-23T14:00:34.441Z,98181.63
2022-12-23T14:03:01.156Z,98177.97
2022-12-23T14:05:50.686Z,98167.44
2022-12-23T14:08:20.440Z,98166.19
2022-12-23T14:11:03.747Z,98164.09
2022-12-23T14:13:41.279Z,98179.84
2022-12-23T14:16:41.855Z,98166.78
2022-12-23T14:19:45.028Z,98167.34
2022-12-23T14:22:54.961Z,98177.41
2022-12-23T14:26:15.778Z,98176.38
2022-12-23T14:29:14.265Z,98178.84
2022-12-23T14:31:45.882Z,98190.41
2022-12-23T14:34:18.521Z,98187.66
2022-12-23T14:37:20.205Z,98168.75
2022-12-23T14:39:48.439Z,98177.88
2022-12-23T14:42:36.139Z,98176.88
2022-12-23T14:45:50.438Z,98168.22
2022-12-23T14:48:35.739Z,98181.66
2022-12-23T14:51:08.452Z,98178.09
2022-12-23T14:53:56.805Z,98187.22
2022-12-23T14:56:43.858Z,98171.75
2022-12-23T14:59:37.417Z,98188.50
2022-12-23T15:02:26.225Z,98172.25
2022-12-23T15:05:00.385Z,98182.38
2022-12-23T15:07:46.318Z,98174.66
2022-12-23T15:10:21.527Z,98187.34
2022-12-23T15:12:54.806Z,98191.56
2022-12-23T15:15:29.415Z,98194.00
2022-12-23T15:18:06.098Z,98199.03
2022-12-23T15:20:33.959Z,98201.66
2022-12-23T15:23:07.631Z,98206.59
2022-12-23T15:25:40.439Z,98196.53
2022-12-23T15:28:26.955Z,98205.00
2022-12-23T15:30:56.790Z,98194.88
2022-12-23T15:36:35.523Z,98220.44
2022-12-23T15:39:15.325Z,98219.50
2022-12-23T15:41:48.333Z,98222.06
2022-12-23T15:44:36.690Z,98232.22
2022-12-23T15:47:22.962Z,98235.66
2022-12-23T15:49:49.939Z,98244.97
2022-12-23T15:52:20.575Z,98225.38
2022-12-23T15:55:10.143Z,98244.03
2022-12-23T15:57:50.164Z,98257.72
2022-12-23T16:00:40.728Z,98249.28
2022-12-23T16:03:34.213Z,98272.34
2022-12-23T16:06:36.013Z,98273.44
2022-12-23T16:09:17.684Z,98279.56
2022-12-23T16:12:22.157Z,98278.97
2022-12-23T16:15:00.504Z,98285.94
2022-12-23T16:17:36.998Z,98283.53
2022-12-23T16:20:15.888Z,98294.66
2022-12-23T16:22:44.813Z,98310.03
2022-12-23T16:25:26.416Z,98325.38
2022-12-23T16:27:58.963Z,98321.25
2022-12-23T16:30:31.668Z,98320.16
2022-12-23T16:33:24.959Z,98329.25
2022-12-23T16:35:55.759Z,98324.66
2022-12-23T16:38:26.687Z,98330.00
2022-12-23T16:40:56.770Z,98330.16
2022-12-23T16:43:25.158Z,98338.72
2022-12-23T16:45:56.892Z,98348.16
2022-12-23T16:48:29.680Z,98351.66
2022-12-23T16:50:57.781Z,98357.66
2022-12-23T16:53:24.592Z,98370.44
2022-12-23T16:55:56.828Z,98360.31
2022-12-23T16:58:26.947Z,98378.03
2022-12-23T17:00:53.882Z,98376.38
2022-12-23T17:03:20.962Z,98366.31
2022-12-23T17:05:48.670Z,98389.22
2022-12-23T17:08:15.717Z,98390.91
2022-12-23T17:10:47.200Z,98390.97
2022-12-23T17:13:18.232Z,98395.31
2022-12-23T17:15:45.380Z,98401.25
2022-12-23T17:18:18.634Z,98394.56
2022-12-23T17:20:48.356Z,98411.53
2022-12-23T17:23:32.366Z,98398.09
2022-12-23T17:25:59.612Z,98395.63
2022-12-23T17:28:32.501Z,98388.03
2022-12-23T17:31:00.409Z,98399.97
2022-12-23T17:33:31.639Z,98405.28
2022-12-23T17:35:59.668Z,98396.97
2022-12-23T17:38:29.384Z,98414.00
2022-12-23T17:41:00.818Z,98410.78
2022-12-23T17:43:27.829Z,98407.53
2022-12-23T17:45:54.655Z,98406.78
2022-12-23T17:48:25.274Z,98411.00
2022-12-23T17:50:54.808Z,98415.41
2022-12-23T17:53:21.626Z,98399.34
2022-12-23T17:55:48.524Z,98429.81
2022-12-23T17:58:15.322Z,98412.81
2022-12-23T18:00:42.071Z,98433.19
2022-12-23T18:03:23.396Z,98427.25
2022-12-23T18:05:54.319Z,98433.22
2022-12-23T18:08:26.028Z,98437.50
2022-12-23T18:10:52.810Z,98429.00
2022-12-23T18:13:21.137Z,98431.53
2022-12-23T18:15:47.958Z,98446.78
2022-12-23T18:18:28.621Z,98448.47
2022-12-23T18:20:59.080Z,98441.72
2022-12-23T18:23:30.261Z,98433.97
2022-12-23T18:25:58.226Z,98448.25
2022-12-23T18:28:26.044Z,98454.91
2022-12-23T18:30:56.340Z,98465.09
2022-12-23T18:33:28.409Z,98460.03
2022-12-23T18:35:55.169Z,98461.75
2022-12-23T18:38:21.855Z,98461.88
2022-12-23T18:40:51.961Z,98449.16
2022-12-23T18:43:25.482Z,98471.38
2022-12-23T18:45:53.779Z,98483.34
2022-12-23T18:48:21.213Z,98485.13
2022-12-23T18:50:48.015Z,98476.75
2022-12-23T18:53:23.678Z,98491.25
2022-12-23T18:55:53.262Z,98491.31
2022-12-23T18:58:21.237Z,98497.25
2022-12-23T19:00:50.720Z,98494.72
2022-12-23T19:03:26.939Z,98474.31
2022-12-23T19:05:55.557Z,98469.19
2022-12-23T19:08:27.170Z,98492.03
2022-12-23T19:10:55.795Z,98486.13
2022-12-23T19:13:22.813Z,98497.97
2022-12-23T19:15:50.365Z,98502.16
2022-12-23T19:18:21.962Z,98494.53
2022-12-23T19:20:49.893Z,98493.75
2022-12-23T19:23:17.413Z,98510.72
2022-12-23T19:25:52.730Z,98506.50
2022-12-23T19:28:22.274Z,98511.53
2022-12-23T19:30:49.769Z,98504.72
2022-12-23T19:33:16.793Z,98503.00
2022-12-23T19:35:44.994Z,98500.38
2022-12-23T19:38:12.266Z,98513.22
2022-12-23T19:40:40.294Z,98518.31
2022-12-23T19:43:07.317Z,98525.09
2022-12-23T19:45:34.084Z,98541.19
2022-12-23T19:48:00.908Z,98541.25
2022-12-23T19:50:27.709Z,98525.97
2022-12-23T19:52:56.134Z,98529.28
2022-12-23T19:55:23.261Z,98530.91
2022-12-23T19:57:50.241Z,98517.38
2022-12-23T20:00:17.248Z,98535.13
2022-12-23T20:02:44.136Z,98524.16
2022-12-23T20:05:11.064Z,98526.69
2022-12-23T20:07:38.199Z,98545.28
2022-12-23T20:10:06.561Z,98529.06
2022-12-23T20:12:33.421Z,98550.22
2022-12-23T20:15:00.228Z,98561.94
2022-12-23T20:17:27.115Z,98542.38
2022-12-23T20:19:53.926Z,98572.81
2022-12-23T20:22:20.678Z,98585.25
2022-12-23T20:24:47.462Z,98589.47
2022-12-23T20:27:24.375Z,98588.56
2022-12-23T20:30:01.012Z,98588.53
2022-12-23T20:32:30.244Z,98587.63
2022-12-23T20:35:02.641Z,98598.44
2022-12-23T20:37:54.548Z,98587.56
2022-12-23T20:53:57.039Z,98604.91
2022-12-23T20:57:18.673Z,98644.75
2022-12-23T21:00:57.906Z,98642.22
2022-12-23T21:10:19.410Z,98657.88
2022-12-23T21:12:46.246Z,98651.75
2022-12-23T21:15:13.071Z,98676.31
2022-12-23T21:17:40.078Z,98663.75
2022-12-23T21:20:09.125Z,98666.16
2022-12-23T21:22:35.946Z,98682.28
2022-12-23T21:25:02.692Z,98701.72
2022-12-23T21:27:29.468Z,98700.09
2022-12-23T21:29:56.293Z,98696.59
2022-12-23T21:32:23.215Z,98694.13
2022-12-23T21:34:50.096Z,98703.53
2022-12-23T21:37:16.943Z,98706.72
2022-12-23T21:39:43.738Z,98700.88
2022-12-23T21:42:10.526Z,98698.34
2022-12-23T21:44:37.273Z,98714.47
2022-12-23T21:47:07.393Z,98719.53
2022-12-23T21:49:34.273Z,98722.88
2022-12-23T21:52:01.177Z,98734.75
2022-12-23T21:54:28.018Z,98733.97
2022-12-23T21:56:54.797Z,98722.97
2022-12-23T21:59:21.765Z,98727.16
2022-12-23T22:01:50.545Z,98732.25
2022-12-23T22:04:17.409Z,98749.22
2022-12-23T22:06:45.461Z,98739.91
2022-12-23T22:09:17.503Z,98752.78
2022-12-23T22:11:45.838Z,98758.78
2022-12-23T22:14:16.277Z,98768.91
2022-12-23T22:16:43.495Z,98767.25
2022-12-23T22:19:12.281Z,98780.81
2022-12-23T22:21:39.771Z,98783.50
2022-12-23T22:24:07.510Z,98777.72
2022-12-23T22:26:35.619Z,98790.34
2022-12-23T22:29:05.758Z,98791.22
2022-12-23T22:31:39.974Z,98793.78
2022-12-23T22:34:08.462Z,98804.00
2022-12-23T22:36:35.713Z,98814.28
2022-12-23T22:39:03.974Z,98804.88
2022-12-23T22:41:31.932Z,98814.28
2022-12-23T22:44:04.091Z,98818.56
2022-12-23T22:46:31.316Z,98819.47
2022-12-23T22:48:59.011Z,98822.78
2022-12-23T22:51:46.449Z,98832.19
2022-12-23T22:54:14.197Z,98837.28
2022-12-23T22:56:41.026Z,98846.50
2022-12-23T22:59:08.875Z,98847.34
2022-12-23T23:01:36.630Z,98862.63
2022-12-23T23:04:04.684Z,98862.59
2022-12-23T23:06:38.335Z,98858.38
2022-12-23T23:09:13.478Z,98861.72
2022-12-23T23:11:41.561Z,98857.53
2022-12-23T23:14:08.343Z,98863.38
2022-12-23T23:16:35.301Z,98856.66
2022-12-23T23:19:04.394Z,98849.00
2022-12-23T23:21:31.801Z,98859.16
2022-12-23T23:23:58.658Z,98860.84
2022-12-23T23:26:27.267Z,98860.97
2022-12-23T23:28:55.641Z,98855.94
2022-12-23T23:34:09.760Z,98870.47
2022-12-23T23:36:36.622Z,98871.38
2022-12-23T23:39:03.816Z,98871.44
2022-12-23T23:41:32.855Z,98877.47
2022-12-23T23:43:59.706Z,98879.25
2022-12-23T23:46:26.549Z,98879.38
2022-12-23T23:48:53.336Z,98882.00
2022-12-23T23:51:20.060Z,98879.56
2022-12-23T23:53:46.937Z,98870.16
2022-12-23T23:56:13.782Z,98887.81
2022-12-23T23:58:40.725Z,98881.00
